الصفحة الرئيسية
METAR-TAF:

METAR-TAF

مطار :

برلين, ألمانيا

مطار برلين تيجيل الدولي

دائرة عرض: 52-34N, خط طول: 013-19E, ارتفاع: 37 متر

مراقبة الطقس الحالي

تاريخ ووقت الإصدار 31 دقيقة قبل الساعة 17:50UTC
ريح 6 عقدة من الجنوب/الجنوب الغربي
درجة الحرارة 3°درجة مئوية
الرطوبة 60%
ضغط 1028 hPa
الرؤية 10 كم أو أكثر
غيوم مفككة على ارتفاع 3300 قدم

METAR: EDDT 181750Z 20006KT 9999 BKN033 03/M04 Q1028 NOSIG

زمن: 19:21 (18:21 UTC)

توقعات

تاريخ ووقت الإصدار 1ساعة و 21 دقيقة قبل الساعة 17:00UTC
التوقعات صالحة من18 الساعة 18 UTC إلى 19 الساعة 18 UTC
ريح 3 عقدة من الجنوب
الرؤية 10 كم أو أكثر
غيوم مفككة على ارتفاع 3500 قدم

TAF: EDDT 181700Z 1818/1918 17003KT 9999 BKN035

أرصاد الطقس والتوقعات من أكثر من 4000 مطار (تقارير الطقس للمطار METAR والتنبؤ بالطقس بالمطارTAF).

المحطات المتاحة هي النقط الصفراء والحمراء على الخريطة.

حرك المؤشر فوق النقطة لمعرفة اسم المحطة.

ثم انقر لمعرفة أرصاد وتوقعات الطقس.

لتغيير الخارطة: اضغط على الأزرار الخضراء مع رمز الصليب الأسود للتكبير. على الزر الأخضر مع شرطة للتصغير، أو على الأسهم الخضراء للخرائط المجاورة.


METAR-TAF: